sensor_id;sensor_type;location;lat;lon;timestamp;temperature;humidity
4505;DHT22;2265;48.794;9.520;2023-02-10T00:01:14;-2.80;98.00
4505;DHT22;2265;48.794;9.520;2023-02-10T00:03:42;-2.70;98.00
4505;DHT22;2265;48.794;9.520;2023-02-10T00:06:11;-2.70;98.00
4505;DHT22;2265;48.794;9.520;2023-02-10T00:08:39;-2.70;98.00
4505;DHT22;2265;48.794;9.520;2023-02-10T00:11:08;-2.70;98.00
4505;DHT22;2265;48.794;9.520;2023-02-10T00:13:36;-2.80;98.00
4505;DHT22;2265;48.794;9.520;2023-02-10T00:16:05;-2.80;98.00
4505;DHT22;2265;48.794;9.520;2023-02-10T00:18:33;-2.80;98.00
4505;DHT22;2265;48.794;9.520;2023-02-10T00:21:05;-2.80;98.00
4505;DHT22;2265;48.794;9.520;2023-02-10T00:23:34;-2.90;98.00
4505;DHT22;2265;48.794;9.520;2023-02-10T00:26:02;-3.00;98.00
4505;DHT22;2265;48.794;9.520;2023-02-10T00:28:31;-3.00;98.00
4505;DHT22;2265;48.794;9.520;2023-02-10T00:30:58;-2.90;98.00
4505;DHT22;2265;48.794;9.520;2023-02-10T00:33:25;-2.80;98.00
4505;DHT22;2265;48.794;9.520;2023-02-10T00:35:52;-2.70;98.00
4505;DHT22;2265;48.794;9.520;2023-02-10T00:38:22;-2.70;98.00
4505;DHT22;2265;48.794;9.520;2023-02-10T00:40:50;-2.70;98.00
4505;DHT22;2265;48.794;9.520;2023-02-10T00:43:17;-3.00;98.00
4505;DHT22;2265;48.794;9.520;2023-02-10T00:45:44;-3.00;98.00
4505;DHT22;2265;48.794;9.520;2023-02-10T00:48:11;-2.90;98.00
4505;DHT22;2265;48.794;9.520;2023-02-10T00:50:39;-2.90;98.00
4505;DHT22;2265;48.794;9.520;2023-02-10T00:53:05;-3.10;98.00
4505;DHT22;2265;48.794;9.520;2023-02-10T00:55:32;-3.10;98.00
4505;DHT22;2265;48.794;9.520;2023-02-10T00:58:01;-3.20;98.00
4505;DHT22;2265;48.794;9.520;2023-02-10T01:00:28;-3.30;98.00
4505;DHT22;2265;48.794;9.520;2023-02-10T01:02:55;-3.30;98.00
4505;DHT22;2265;48.794;9.520;2023-02-10T01:05:22;-3.40;98.00
4505;DHT22;2265;48.794;9.520;2023-02-10T01:07:49;-3.50;98.00
4505;DHT22;2265;48.794;9.520;2023-02-10T01:10:18;-3.60;98.00
4505;DHT22;2265;48.794;9.520;2023-02-10T01:12:45;-3.60;98.00
4505;DHT22;2265;48.794;9.520;2023-02-10T01:15:14;-3.50;98.00
4505;DHT22;2265;48.794;9.520;2023-02-10T01:17:41;-3.50;98.00
4505;DHT22;2265;48.794;9.520;2023-02-10T01:20:09;-3.50;98.00
4505;DHT22;2265;48.794;9.520;2023-02-10T01:22:37;-3.50;98.00
4505;DHT22;2265;48.794;9.520;2023-02-10T01:25:04;-3.40;98.00
4505;DHT22;2265;48.794;9.520;2023-02-10T01:27:31;-3.20;98.00
4505;DHT22;2265;48.794;9.520;2023-02-10T01:29:59;-3.40;98.00
4505;DHT22;2265;48.794;9.520;2023-02-10T01:32:28;-3.50;98.00
4505;DHT22;2265;48.794;9.520;2023-02-10T01:34:56;-3.50;98.00
4505;DHT22;2265;48.794;9.520;2023-02-10T01:37:23;-3.60;98.00
4505;DHT22;2265;48.794;9.520;2023-02-10T01:39:50;-3.50;98.00
4505;DHT22;2265;48.794;9.520;2023-02-10T01:42:17;-3.50;98.00
4505;DHT22;2265;48.794;9.520;2023-02-10T01:45:13;-3.50;98.00
4505;DHT22;2265;48.794;9.520;2023-02-10T01:47:45;-3.60;98.00
4505;DHT22;2265;48.794;9.520;2023-02-10T01:50:14;-3.40;98.00
4505;DHT22;2265;48.794;9.520;2023-02-10T01:52:43;-3.30;98.00
4505;DHT22;2265;48.794;9.520;2023-02-10T01:55:13;-3.30;98.00
4505;DHT22;2265;48.794;9.520;2023-02-10T01:57:43;-3.50;98.00
4505;DHT22;2265;48.794;9.520;2023-02-10T02:00:12;-3.70;98.00
4505;DHT22;2265;48.794;9.520;2023-02-10T02:02:41;-3.90;98.00
4505;DHT22;2265;48.794;9.520;2023-02-10T02:05:29;-4.00;98.00
4505;DHT22;2265;48.794;9.520;2023-02-10T02:08:01;-4.10;98.00
4505;DHT22;2265;48.794;9.520;2023-02-10T02:13:35;-4.00;98.00
4505;DHT22;2265;48.794;9.520;2023-02-10T02:16:13;-3.80;98.00
4505;DHT22;2265;48.794;9.520;2023-02-10T02:18:47;-3.90;98.00
4505;DHT22;2265;48.794;9.520;2023-02-10T02:21:43;-4.00;98.00
4505;DHT22;2265;48.794;9.520;2023-02-10T02:24:36;-3.90;98.00
4505;DHT22;2265;48.794;9.520;2023-02-10T02:27:21;-4.00;98.00
4505;DHT22;2265;48.794;9.520;2023-02-10T02:30:15;-4.10;98.00
4505;DHT22;2265;48.794;9.520;2023-02-10T02:32:52;-4.20;98.00
4505;DHT22;2265;48.794;9.520;2023-02-10T02:35:24;-4.00;98.00
4505;DHT22;2265;48.794;9.520;2023-02-10T02:37:52;-4.00;98.00
4505;DHT22;2265;48.794;9.520;2023-02-10T02:40:20;-4.10;98.00
4505;DHT22;2265;48.794;9.520;2023-02-10T02:42:47;-4.00;98.00
4505;DHT22;2265;48.794;9.520;2023-02-10T02:45:18;-3.90;98.00
4505;DHT22;2265;48.794;9.520;2023-02-10T02:47:59;-3.70;98.00
4505;DHT22;2265;48.794;9.520;2023-02-10T02:50:34;-3.70;98.00
4505;DHT22;2265;48.794;9.520;2023-02-10T02:53:11;-3.80;98.00
4505;DHT22;2265;48.794;9.520;2023-02-10T02:55:57;-3.90;98.00
4505;DHT22;2265;48.794;9.520;2023-02-10T02:58:30;-3.80;98.00
4505;DHT22;2265;48.794;9.520;2023-02-10T03:01:02;-3.90;98.00
4505;DHT22;2265;48.794;9.520;2023-02-10T03:03:33;-3.70;98.00
4505;DHT22;2265;48.794;9.520;2023-02-10T03:06:01;-3.60;98.00
4505;DHT22;2265;48.794;9.520;2023-02-10T03:08:30;-3.60;98.00
4505;DHT22;2265;48.794;9.520;2023-02-10T03:10:57;-3.60;98.00
4505;DHT22;2265;48.794;9.520;2023-02-10T03:13:24;-3.80;98.00
4505;DHT22;2265;48.794;9.520;2023-02-10T03:15:52;-4.00;98.00
4505;DHT22;2265;48.794;9.520;2023-02-10T03:18:19;-3.90;98.00
4505;DHT22;2265;48.794;9.520;2023-02-10T03:20:48;-3.90;98.00
4505;DHT22;2265;48.794;9.520;2023-02-10T03:23:15;-3.80;98.00
4505;DHT22;2265;48.794;9.520;2023-02-10T03:25:44;-4.00;98.00
4505;DHT22;2265;48.794;9.520;2023-02-10T03:28:11;-4.10;98.00
4505;DHT22;2265;48.794;9.520;2023-02-10T03:30:38;-4.20;98.00
4505;DHT22;2265;48.794;9.520;2023-02-10T03:33:07;-4.10;98.00
4505;DHT22;2265;48.794;9.520;2023-02-10T03:35:36;-4.30;98.00
4505;DHT22;2265;48.794;9.520;2023-02-10T03:38:06;-4.10;98.00
4505;DHT22;2265;48.794;9.520;2023-02-10T03:40:34;-3.90;98.00
4505;DHT22;2265;48.794;9.520;2023-02-10T03:43:01;-3.90;98.00
4505;DHT22;2265;48.794;9.520;2023-02-10T03:45:28;-4.00;98.00
4505;DHT22;2265;48.794;9.520;2023-02-10T03:47:55;-4.10;98.00
4505;DHT22;2265;48.794;9.520;2023-02-10T03:50:22;-4.20;98.00
4505;DHT22;2265;48.794;9.520;2023-02-10T03:52:49;-4.40;98.00
4505;DHT22;2265;48.794;9.520;2023-02-10T03:55:17;-4.40;98.00
4505;DHT22;2265;48.794;9.520;2023-02-10T03:57:45;-4.30;98.00
4505;DHT22;2265;48.794;9.520;2023-02-10T04:00:14;-4.30;98.00
4505;DHT22;2265;48.794;9.520;2023-02-10T04:02:41;-4.10;98.00
4505;DHT22;2265;48.794;9.520;2023-02-10T04:05:08;-4.00;98.00
4505;DHT22;2265;48.794;9.520;2023-02-10T04:07:35;-4.00;98.00
4505;DHT22;2265;48.794;9.520;2023-02-10T04:10:03;-4.10;98.00
4505;DHT22;2265;48.794;9.520;2023-02-10T04:12:32;-4.30;98.00
4505;DHT22;2265;48.794;9.520;2023-02-10T04:14:59;-4.30;98.00
4505;DHT22;2265;48.794;9.520;2023-02-10T04:17:26;-4.30;98.00
4505;DHT22;2265;48.794;9.520;2023-02-10T04:19:53;-4.30;98.00
4505;DHT22;2265;48.794;9.520;2023-02-10T04:22:20;-4.20;98.00
4505;DHT22;2265;48.794;9.520;2023-02-10T04:24:48;-4.10;98.00
4505;DHT22;2265;48.794;9.520;2023-02-10T04:27:15;-4.10;98.00
4505;DHT22;2265;48.794;9.520;2023-02-10T04:29:44;-4.20;98.00
4505;DHT22;2265;48.794;9.520;2023-02-10T04:32:11;-4.30;98.00
4505;DHT22;2265;48.794;9.520;2023-02-10T04:34:38;-4.40;98.00
4505;DHT22;2265;48.794;9.520;2023-02-10T04:37:05;-4.60;98.00
4505;DHT22;2265;48.794;9.520;2023-02-10T04:39:32;-4.60;98.00
4505;DHT22;2265;48.794;9.520;2023-02-10T04:41:59;-4.80;98.00
4505;DHT22;2265;48.794;9.520;2023-02-10T04:44:26;-4.80;98.00
4505;DHT22;2265;48.794;9.520;2023-02-10T04:47:02;-4.70;98.00
4505;DHT22;2265;48.794;9.520;2023-02-10T04:49:30;-4.80;98.00
4505;DHT22;2265;48.794;9.520;2023-02-10T04:51:58;-4.70;98.00
4505;DHT22;2265;48.794;9.520;2023-02-10T04:54:25;-4.70;98.00
4505;DHT22;2265;48.794;9.520;2023-02-10T04:56:53;-4.70;98.00
4505;DHT22;2265;48.794;9.520;2023-02-10T04:59:20;-4.80;98.00
4505;DHT22;2265;48.794;9.520;2023-02-10T05:01:47;-4.90;98.00
4505;DHT22;2265;48.794;9.520;2023-02-10T05:04:15;-4.80;98.00
4505;DHT22;2265;48.794;9.520;2023-02-10T05:06:42;-4.80;98.00
4505;DHT22;2265;48.794;9.520;2023-02-10T05:09:09;-4.70;98.00
4505;DHT22;2265;48.794;9.520;2023-02-10T05:11:36;-4.60;98.00
4505;DHT22;2265;48.794;9.520;2023-02-10T05:14:03;-4.60;98.00
4505;DHT22;2265;48.794;9.520;2023-02-10T05:16:30;-4.60;98.00
4505;DHT22;2265;48.794;9.520;2023-02-10T05:18:57;-4.70;98.00
4505;DHT22;2265;48.794;9.520;2023-02-10T05:21:26;-4.90;98.00
4505;DHT22;2265;48.794;9.520;2023-02-10T05:23:53;-4.90;98.00
4505;DHT22;2265;48.794;9.520;2023-02-10T05:26:20;-4.90;98.00
4505;DHT22;2265;48.794;9.520;2023-02-10T05:28:47;-5.00;98.00
4505;DHT22;2265;48.794;9.520;2023-02-10T05:31:14;-5.00;98.00
4505;DHT22;2265;48.794;9.520;2023-02-10T05:33:41;-4.90;98.00
4505;DHT22;2265;48.794;9.520;2023-02-10T05:36:09;-4.80;98.00
4505;DHT22;2265;48.794;9.520;2023-02-10T05:38:37;-4.60;98.00
4505;DHT22;2265;48.794;9.520;2023-02-10T05:41:04;-4.70;98.00
4505;DHT22;2265;48.794;9.520;2023-02-10T05:43:31;-4.80;98.00
4505;DHT22;2265;48.794;9.520;2023-02-10T05:45:59;-4.60;98.00
4505;DHT22;2265;48.794;9.520;2023-02-10T05:48:26;-4.80;98.00
4505;DHT22;2265;48.794;9.520;2023-02-10T05:50:54;-4.80;98.00
4505;DHT22;2265;48.794;9.520;2023-02-10T05:53:22;-4.80;98.00
4505;DHT22;2265;48.794;9.520;2023-02-10T05:55:50;-4.80;98.00
4505;DHT22;2265;48.794;9.520;2023-02-10T05:58:17;-4.70;98.00
4505;DHT22;2265;48.794;9.520;2023-02-10T06:00:44;-4.60;98.00
4505;DHT22;2265;48.794;9.520;2023-02-10T06:03:12;-4.70;98.00
4505;DHT22;2265;48.794;9.520;2023-02-10T06:05:39;-4.90;98.00
4505;DHT22;2265;48.794;9.520;2023-02-10T06:08:05;-5.00;98.00
4505;DHT22;2265;48.794;9.520;2023-02-10T06:10:33;-5.10;98.00
4505;DHT22;2265;48.794;9.520;2023-02-10T06:13:05;-5.30;98.00
4505;DHT22;2265;48.794;9.520;2023-02-10T06:15:32;-5.30;98.00
4505;DHT22;2265;48.794;9.520;2023-02-10T06:18:00;-5.30;98.00
4505;DHT22;2265;48.794;9.520;2023-02-10T06:20:27;-5.30;98.00
4505;DHT22;2265;48.794;9.520;2023-02-10T06:22:54;-5.30;98.00
4505;DHT22;2265;48.794;9.520;2023-02-10T06:25:21;-5.20;98.00
4505;DHT22;2265;48.794;9.520;2023-02-10T06:27:49;-5.30;98.00
4505;DHT22;2265;48.794;9.520;2023-02-10T06:30:17;-5.10;98.00
4505;DHT22;2265;48.794;9.520;2023-02-10T06:32:44;-5.10;98.00
4505;DHT22;2265;48.794;9.520;2023-02-10T06:35:12;-5.10;98.00
4505;DHT22;2265;48.794;9.520;2023-02-10T06:37:39;-5.20;98.00
4505;DHT22;2265;48.794;9.520;2023-02-10T06:40:07;-5.10;98.00
4505;DHT22;2265;48.794;9.520;2023-02-10T06:42:35;-5.10;98.00
4505;DHT22;2265;48.794;9.520;2023-02-10T06:45:03;-5.00;98.00
4505;DHT22;2265;48.794;9.520;2023-02-10T06:47:32;-5.00;98.00
4505;DHT22;2265;48.794;9.520;2023-02-10T06:49:59;-5.00;98.00
4505;DHT22;2265;48.794;9.520;2023-02-10T06:52:26;-4.80;98.00
4505;DHT22;2265;48.794;9.520;2023-02-10T06:54:53;-4.90;98.00
4505;DHT22;2265;48.794;9.520;2023-02-10T06:57:22;-4.90;98.00
4505;DHT22;2265;48.794;9.520;2023-02-10T06:59:49;-5.00;98.00
4505;DHT22;2265;48.794;9.520;2023-02-10T07:02:18;-5.00;98.00
4505;DHT22;2265;48.794;9.520;2023-02-10T07:04:46;-5.00;98.00
4505;DHT22;2265;48.794;9.520;2023-02-10T07:07:13;-5.00;98.00
4505;DHT22;2265;48.794;9.520;2023-02-10T07:09:40;-5.00;98.00
4505;DHT22;2265;48.794;9.520;2023-02-10T07:12:08;-5.00;98.00
4505;DHT22;2265;48.794;9.520;2023-02-10T07:14:35;-5.00;98.00
4505;DHT22;2265;48.794;9.520;2023-02-10T07:17:05;-5.00;98.00
4505;DHT22;2265;48.794;9.520;2023-02-10T07:19:32;-4.90;98.00
4505;DHT22;2265;48.794;9.520;2023-02-10T07:22:01;-4.90;98.00
4505;DHT22;2265;48.794;9.520;2023-02-10T07:24:30;-4.80;98.00
4505;DHT22;2265;48.794;9.520;2023-02-10T07:26:57;-4.80;98.00
4505;DHT22;2265;48.794;9.520;2023-02-10T07:29:24;-4.80;98.00
4505;DHT22;2265;48.794;9.520;2023-02-10T07:31:51;-4.80;98.00
4505;DHT22;2265;48.794;9.520;2023-02-10T07:34:18;-4.70;98.00
4505;DHT22;2265;48.794;9.520;2023-02-10T07:36:46;-4.70;98.00
4505;DHT22;2265;48.794;9.520;2023-02-10T07:39:20;-4.70;98.00
4505;DHT22;2265;48.794;9.520;2023-02-10T07:41:48;-4.70;98.00
4505;DHT22;2265;48.794;9.520;2023-02-10T07:44:15;-4.50;98.00
4505;DHT22;2265;48.794;9.520;2023-02-10T07:46:42;-4.30;98.00
4505;DHT22;2265;48.794;9.520;2023-02-10T07:49:09;-4.20;98.00
4505;DHT22;2265;48.794;9.520;2023-02-10T07:51:36;-4.00;98.00
4505;DHT22;2265;48.794;9.520;2023-02-10T07:54:03;-4.00;98.00
4505;DHT22;2265;48.794;9.520;2023-02-10T07:56:33;-3.90;98.00
4505;DHT22;2265;48.794;9.520;2023-02-10T07:59:00;-3.80;98.00
4505;DHT22;2265;48.794;9.520;2023-02-10T08:01:27;-3.70;98.00
4505;DHT22;2265;48.794;9.520;2023-02-10T08:03:54;-3.70;98.00
4505;DHT22;2265;48.794;9.520;2023-02-10T08:06:24;-3.70;98.00
4505;DHT22;2265;48.794;9.520;2023-02-10T08:08:51;-3.60;98.00
4505;DHT22;2265;48.794;9.520;2023-02-10T08:11:18;-3.60;98.00
4505;DHT22;2265;48.794;9.520;2023-02-10T08:13:46;-3.50;98.00
4505;DHT22;2265;48.794;9.520;2023-02-10T08:16:13;-3.40;98.00
4505;DHT22;2265;48.794;9.520;2023-02-10T08:18:41;-3.30;98.00
4505;DHT22;2265;48.794;9.520;2023-02-10T08:21:08;-3.30;98.00
4505;DHT22;2265;48.794;9.520;2023-02-10T08:23:35;-3.20;98.00
4505;DHT22;2265;48.794;9.520;2023-02-10T08:26:04;-3.00;98.00
4505;DHT22;2265;48.794;9.520;2023-02-10T08:28:31;-3.00;98.00
4505;DHT22;2265;48.794;9.520;2023-02-10T08:31:01;-3.00;98.00
4505;DHT22;2265;48.794;9.520;2023-02-10T08:33:28;-2.80;98.00
4505;DHT22;2265;48.794;9.520;2023-02-10T08:35:57;-2.70;98.00
4505;DHT22;2265;48.794;9.520;2023-02-10T08:38:24;-2.70;98.00
4505;DHT22;2265;48.794;9.520;2023-02-10T08:40:54;-2.60;98.00
4505;DHT22;2265;48.794;9.520;2023-02-10T08:43:22;-2.60;98.00
4505;DHT22;2265;48.794;9.520;2023-02-10T08:45:49;-2.50;98.00
4505;DHT22;2265;48.794;9.520;2023-02-10T08:48:18;-2.50;98.00
4505;DHT22;2265;48.794;9.520;2023-02-10T08:50:45;-2.50;98.00
4505;DHT22;2265;48.794;9.520;2023-02-10T08:53:12;-2.50;98.00
4505;DHT22;2265;48.794;9.520;2023-02-10T08:55:39;-2.60;98.00
4505;DHT22;2265;48.794;9.520;2023-02-10T08:58:06;-2.60;98.00
4505;DHT22;2265;48.794;9.520;2023-02-10T09:00:33;-2.50;98.00
4505;DHT22;2265;48.794;9.520;2023-02-10T09:03:01;-2.40;98.00
4505;DHT22;2265;48.794;9.520;2023-02-10T09:05:29;-2.30;98.00
4505;DHT22;2265;48.794;9.520;2023-02-10T09:07:56;-2.30;98.00
4505;DHT22;2265;48.794;9.520;2023-02-10T09:10:23;-2.20;98.00
4505;DHT22;2265;48.794;9.520;2023-02-10T09:12:50;-2.00;98.00
4505;DHT22;2265;48.794;9.520;2023-02-10T09:15:18;-1.80;98.00
4505;DHT22;2265;48.794;9.520;2023-02-10T09:17:46;-1.60;98.00
4505;DHT22;2265;48.794;9.520;2023-02-10T09:20:13;-1.40;98.00
4505;DHT22;2265;48.794;9.520;2023-02-10T09:22:41;-1.50;98.00
4505;DHT22;2265;48.794;9.520;2023-02-10T09:25:09;-1.50;98.00
4505;DHT22;2265;48.794;9.520;2023-02-10T09:27:36;-1.30;98.00
4505;DHT22;2265;48.794;9.520;2023-02-10T09:30:04;-1.20;98.00
4505;DHT22;2265;48.794;9.520;2023-02-10T09:32:31;-1.00;98.00
4505;DHT22;2265;48.794;9.520;2023-02-10T09:34:58;-1.00;98.00
4505;DHT22;2265;48.794;9.520;2023-02-10T09:37:25;-0.80;98.00
4505;DHT22;2265;48.794;9.520;2023-02-10T09:39:54;-0.60;98.00
4505;DHT22;2265;48.794;9.520;2023-02-10T09:42:26;-0.40;98.00
4505;DHT22;2265;48.794;9.520;2023-02-10T09:45:03;-0.30;98.00
4505;DHT22;2265;48.794;9.520;2023-02-10T09:47:44;-0.20;98.00
4505;DHT22;2265;48.794;9.520;2023-02-10T09:50:34;-0.10;98.00
4505;DHT22;2265;48.794;9.520;2023-02-10T09:53:10;0.00;98.00
4505;DHT22;2265;48.794;9.520;2023-02-10T09:55:43;0.10;98.00
4505;DHT22;2265;48.794;9.520;2023-02-10T09:58:19;0.20;98.00
4505;DHT22;2265;48.794;9.520;2023-02-10T10:00:49;0.20;98.00
4505;DHT22;2265;48.794;9.520;2023-02-10T10:03:23;0.20;98.00
4505;DHT22;2265;48.794;9.520;2023-02-10T10:05:59;0.30;98.00
4505;DHT22;2265;48.794;9.520;2023-02-10T10:08:34;0.30;98.00
4505;DHT22;2265;48.794;9.520;2023-02-10T10:11:25;0.40;98.00
4505;DHT22;2265;48.794;9.520;2023-02-10T10:13:54;0.60;98.00
4505;DHT22;2265;48.794;9.520;2023-02-10T10:19:29;1.10;98.00
4505;DHT22;2265;48.794;9.520;2023-02-10T10:22:16;1.20;98.00
4505;DHT22;2265;48.794;9.520;2023-02-10T10:25:17;1.30;98.00
4505;DHT22;2265;48.794;9.520;2023-02-10T10:27:57;1.40;98.00
4505;DHT22;2265;48.794;9.520;2023-02-10T10:30:34;1.60;98.00
4505;DHT22;2265;48.794;9.520;2023-02-10T10:33:14;1.90;98.00
4505;DHT22;2265;48.794;9.520;2023-02-10T10:35:46;2.00;98.00
4505;DHT22;2265;48.794;9.520;2023-02-10T10:38:14;2.10;98.00
4505;DHT22;2265;48.794;9.520;2023-02-10T10:40:43;2.30;98.00
4505;DHT22;2265;48.794;9.520;2023-02-10T10:43:20;2.40;98.00
4505;DHT22;2265;48.794;9.520;2023-02-10T10:45:51;2.60;98.00
4505;DHT22;2265;48.794;9.520;2023-02-10T10:48:21;2.70;98.00
4505;DHT22;2265;48.794;9.520;2023-02-10T10:50:55;2.90;98.00
4505;DHT22;2265;48.794;9.520;2023-02-10T10:53:35;3.00;98.00
4505;DHT22;2265;48.794;9.520;2023-02-10T10:56:06;3.10;98.00
4505;DHT22;2265;48.794;9.520;2023-02-10T10:58:38;3.20;98.00
4505;DHT22;2265;48.794;9.520;2023-02-10T11:01:06;3.40;98.00
4505;DHT22;2265;48.794;9.520;2023-02-10T11:03:34;3.60;98.00
4505;DHT22;2265;48.794;9.520;2023-02-10T11:06:04;3.60;98.00
4505;DHT22;2265;48.794;9.520;2023-02-10T11:08:35;3.60;98.00
4505;DHT22;2265;48.794;9.520;2023-02-10T11:11:06;3.80;98.00
4505;DHT22;2265;48.794;9.520;2023-02-10T11:13:39;4.00;98.00
4505;DHT22;2265;48.794;9.520;2023-02-10T11:16:09;4.10;98.00
4505;DHT22;2265;48.794;9.520;2023-02-10T11:18:38;4.40;98.00
4505;DHT22;2265;48.794;9.520;2023-02-10T11:21:08;4.60;98.00
4505;DHT22;2265;48.794;9.520;2023-02-10T11:23:46;4.80;98.00
4505;DHT22;2265;48.794;9.520;2023-02-10T11:26:19;5.00;98.00
4505;DHT22;2265;48.794;9.520;2023-02-10T11:28:48;5.20;98.00
4505;DHT22;2265;48.794;9.520;2023-02-10T11:31:27;5.50;98.00
4505;DHT22;2265;48.794;9.520;2023-02-10T11:33:59;5.80;98.00
4505;DHT22;2265;48.794;9.520;2023-02-10T11:36:33;6.10;98.00
4505;DHT22;2265;48.794;9.520;2023-02-10T11:39:04;6.30;98.00
4505;DHT22;2265;48.794;9.520;2023-02-10T11:41:31;6.60;98.00
4505;DHT22;2265;48.794;9.520;2023-02-10T11:44:01;6.80;98.00
4505;DHT22;2265;48.794;9.520;2023-02-10T11:46:30;7.10;97.40
4505;DHT22;2265;48.794;9.520;2023-02-10T11:48:59;7.30;96.60
4505;DHT22;2265;48.794;9.520;2023-02-10T11:51:27;7.60;96.50
4505;DHT22;2265;48.794;9.520;2023-02-10T11:53:55;8.10;95.10
4505;DHT22;2265;48.794;9.520;2023-02-10T11:56:28;8.20;92.70
4505;DHT22;2265;48.794;9.520;2023-02-10T11:59:26;8.50;91.90
4505;DHT22;2265;48.794;9.520;2023-02-10T12:01:57;8.70;91.30
4505;DHT22;2265;48.794;9.520;2023-02-10T12:04:39;9.00;90.20
4505;DHT22;2265;48.794;9.520;2023-02-10T12:07:19;9.00;89.20
4505;DHT22;2265;48.794;9.520;2023-02-10T12:09:52;9.20;89.80
4505;DHT22;2265;48.794;9.520;2023-02-10T12:12:28;9.40;89.10
4505;DHT22;2265;48.794;9.520;2023-02-10T12:15:12;9.50;87.30
4505;DHT22;2265;48.794;9.520;2023-02-10T12:17:48;9.80;87.20
4505;DHT22;2265;48.794;9.520;2023-02-10T12:20:38;9.90;85.50
4505;DHT22;2265;48.794;9.520;2023-02-10T12:23:48;10.20;85.30
4505;DHT22;2265;48.794;9.520;2023-02-10T12:26:22;10.00;84.50
4505;DHT22;2265;48.794;9.520;2023-02-10T12:29:02;10.00;83.80
4505;DHT22;2265;48.794;9.520;2023-02-10T12:31:43;9.90;84.80
4505;DHT22;2265;48.794;9.520;2023-02-10T12:34:23;10.20;84.90
4505;DHT22;2265;48.794;9.520;2023-02-10T12:36:59;10.50;85.20
4505;DHT22;2265;48.794;9.520;2023-02-10T12:39:34;10.60;83.60
4505;DHT22;2265;48.794;9.520;2023-02-10T12:42:15;10.70;83.00
4505;DHT22;2265;48.794;9.520;2023-02-10T12:44:54;10.90;82.20
4505;DHT22;2265;48.794;9.520;2023-02-10T12:47:32;10.70;81.90
4505;DHT22;2265;48.794;9.520;2023-02-10T12:50:19;11.00;82.10
4505;DHT22;2265;48.794;9.520;2023-02-10T12:52:51;11.20;80.90
4505;DHT22;2265;48.794;9.520;2023-02-10T12:55:25;11.60;81.40
4505;DHT22;2265;48.794;9.520;2023-02-10T12:57:58;11.90;79.80
4505;DHT22;2265;48.794;9.520;2023-02-10T13:00:31;12.10;79.00
4505;DHT22;2265;48.794;9.520;2023-02-10T13:03:06;12.00;78.70
4505;DHT22;2265;48.794;9.520;2023-02-10T13:05:39;12.10;78.60
4505;DHT22;2265;48.794;9.520;2023-02-10T13:08:16;12.10;77.90
4505;DHT22;2265;48.794;9.520;2023-02-10T13:10:48;12.30;77.90
4505;DHT22;2265;48.794;9.520;2023-02-10T13:13:19;12.50;77.50
4505;DHT22;2265;48.794;9.520;2023-02-10T13:15:51;12.60;76.30
4505;DHT22;2265;48.794;9.520;2023-02-10T13:18:24;12.40;75.80
4505;DHT22;2265;48.794;9.520;2023-02-10T13:20:58;12.50;75.50
4505;DHT22;2265;48.794;9.520;2023-02-10T13:23:34;12.70;75.30
4505;DHT22;2265;48.794;9.520;2023-02-10T13:26:21;12.70;74.40
4505;DHT22;2265;48.794;9.520;2023-02-10T13:28:58;12.80;74.70
4505;DHT22;2265;48.794;9.520;2023-02-10T13:34:42;12.60;74.70
4505;DHT22;2265;48.794;9.520;2023-02-10T13:37:14;12.60;74.40
4505;DHT22;2265;48.794;9.520;2023-02-10T13:39:50;12.40;74.20
4505;DHT22;2265;48.794;9.520;2023-02-10T13:42:27;12.30;74.50
4505;DHT22;2265;48.794;9.520;2023-02-10T13:45:00;12.00;75.50
4505;DHT22;2265;48.794;9.520;2023-02-10T13:47:35;11.70;76.10
4505;DHT22;2265;48.794;9.520;2023-02-10T13:50:19;11.30;77.50
4505;DHT22;2265;48.794;9.520;2023-02-10T13:52:52;10.80;77.90
4505;DHT22;2265;48.794;9.520;2023-02-10T13:55:36;10.30;80.00
4505;DHT22;2265;48.794;9.520;2023-02-10T13:58:27;10.00;81.40
4505;DHT22;2265;48.794;9.520;2023-02-10T14:00:57;9.80;81.60
4505;DHT22;2265;48.794;9.520;2023-02-10T14:03:26;9.80;82.70
4505;DHT22;2265;48.794;9.520;2023-02-10T14:05:57;9.70;83.10
4505;DHT22;2265;48.794;9.520;2023-02-10T14:08:30;9.50;83.60
4505;DHT22;2265;48.794;9.520;2023-02-10T14:11:00;9.00;83.00
4505;DHT22;2265;48.794;9.520;2023-02-10T14:13:30;8.80;84.30
4505;DHT22;2265;48.794;9.520;2023-02-10T14:16:00;8.80;84.60
4505;DHT22;2265;48.794;9.520;2023-02-10T14:18:37;8.70;84.00
4505;DHT22;2265;48.794;9.520;2023-02-10T14:21:09;8.70;85.10
4505;DHT22;2265;48.794;9.520;2023-02-10T14:23:51;8.90;84.00
4505;DHT22;2265;48.794;9.520;2023-02-10T14:26:22;9.50;83.90
4505;DHT22;2265;48.794;9.520;2023-02-10T14:28:53;10.00;82.70
4505;DHT22;2265;48.794;9.520;2023-02-10T14:31:26;10.30;81.70
4505;DHT22;2265;48.794;9.520;2023-02-10T14:33:54;10.60;80.40
4505;DHT22;2265;48.794;9.520;2023-02-10T14:36:24;10.60;81.10
4505;DHT22;2265;48.794;9.520;2023-02-10T14:38:53;10.80;81.10
4505;DHT22;2265;48.794;9.520;2023-02-10T14:41:20;10.90;79.70
4505;DHT22;2265;48.794;9.520;2023-02-10T14:43:48;11.10;79.10
4505;DHT22;2265;48.794;9.520;2023-02-10T14:46:19;11.30;78.70
4505;DHT22;2265;48.794;9.520;2023-02-10T14:48:47;11.50;79.50
4505;DHT22;2265;48.794;9.520;2023-02-10T14:51:20;11.70;78.00
4505;DHT22;2265;48.794;9.520;2023-02-10T14:53:49;12.10;78.00
4505;DHT22;2265;48.794;9.520;2023-02-10T14:56:18;12.40;76.30
4505;DHT22;2265;48.794;9.520;2023-02-10T14:58:47;12.80;76.00
4505;DHT22;2265;48.794;9.520;2023-02-10T15:01:20;13.20;76.70
4505;DHT22;2265;48.794;9.520;2023-02-10T15:03:50;13.70;76.50
4505;DHT22;2265;48.794;9.520;2023-02-10T15:06:23;13.90;73.60
4505;DHT22;2265;48.794;9.520;2023-02-10T15:08:55;13.70;74.30
4505;DHT22;2265;48.794;9.520;2023-02-10T15:11:26;14.00;75.40
4505;DHT22;2265;48.794;9.520;2023-02-10T15:14:14;14.20;74.20
4505;DHT22;2265;48.794;9.520;2023-02-10T15:16:44;14.30;74.20
4505;DHT22;2265;48.794;9.520;2023-02-10T15:19:16;14.40;74.40
4505;DHT22;2265;48.794;9.520;2023-02-10T15:21:46;14.80;73.70
4505;DHT22;2265;48.794;9.520;2023-02-10T15:24:27;15.10;71.60
4505;DHT22;2265;48.794;9.520;2023-02-10T15:26:55;15.20;72.40
4505;DHT22;2265;48.794;9.520;2023-02-10T15:29:22;14.90;72.70
4505;DHT22;2265;48.794;9.520;2023-02-10T15:31:57;14.80;73.80
4505;DHT22;2265;48.794;9.520;2023-02-10T15:34:26;14.80;73.30
4505;DHT22;2265;48.794;9.520;2023-02-10T15:36:58;14.40;74.00
4505;DHT22;2265;48.794;9.520;2023-02-10T15:39:29;14.40;73.80
4505;DHT22;2265;48.794;9.520;2023-02-10T15:42:01;14.60;73.90
4505;DHT22;2265;48.794;9.520;2023-02-10T15:44:32;14.10;73.80
4505;DHT22;2265;48.794;9.520;2023-02-10T15:47:24;14.00;74.50
4505;DHT22;2265;48.794;9.520;2023-02-10T15:49:54;13.90;74.10
4505;DHT22;2265;48.794;9.520;2023-02-10T15:52:24;13.70;74.30
4505;DHT22;2265;48.794;9.520;2023-02-10T15:54:55;12.80;76.10
4505;DHT22;2265;48.794;9.520;2023-02-10T15:57:23;11.50;77.80
4505;DHT22;2265;48.794;9.520;2023-02-10T15:59:51;10.30;80.40
4505;DHT22;2265;48.794;9.520;2023-02-10T16:02:20;9.40;82.80
4505;DHT22;2265;48.794;9.520;2023-02-10T16:04:47;8.50;85.20
4505;DHT22;2265;48.794;9.520;2023-02-10T16:07:18;8.00;86.20
4505;DHT22;2265;48.794;9.520;2023-02-10T16:09:47;7.40;87.20
4505;DHT22;2265;48.794;9.520;2023-02-10T16:12:16;7.10;88.40
4505;DHT22;2265;48.794;9.520;2023-02-10T16:14:43;6.70;89.60
4505;DHT22;2265;48.794;9.520;2023-02-10T16:17:18;6.40;90.60
4505;DHT22;2265;48.794;9.520;2023-02-10T16:19:47;6.00;92.50
4505;DHT22;2265;48.794;9.520;2023-02-10T16:22:16;5.70;94.60
4505;DHT22;2265;48.794;9.520;2023-02-10T16:24:43;5.40;95.40
4505;DHT22;2265;48.794;9.520;2023-02-10T16:27:10;5.10;95.80
4505;DHT22;2265;48.794;9.520;2023-02-10T16:29:43;5.00;95.90
4505;DHT22;2265;48.794;9.520;2023-02-10T16:32:11;4.90;96.30
4505;DHT22;2265;48.794;9.520;2023-02-10T16:34:38;4.80;96.20
4505;DHT22;2265;48.794;9.520;2023-02-10T16:37:05;4.60;97.30